createdAt,value
2018-11-20T06:03:40.418Z,4.04
2018-11-20T06:08:43.767Z,4.10
2018-11-20T06:13:57.137Z,4.16
2018-11-20T06:19:00.486Z,4.20
2018-11-20T06:24:03.835Z,4.21
2018-11-20T06:29:07.258Z,4.18
2018-11-20T06:34:17.306Z,4.10
2018-11-20T06:39:20.631Z,4.16
2018-11-20T06:44:24.741Z,4.26
2018-11-20T06:49:28.081Z,4.21
2018-11-20T06:54:32.811Z,4.29
2018-11-20T06:59:36.924Z,4.32
2018-11-20T07:04:40.257Z,4.26
2018-11-20T07:09:44.357Z,4.37
2018-11-20T07:14:47.962Z,4.46
2018-11-20T07:19:51.309Z,4.55
2018-11-20T07:24:54.780Z,4.57
2018-11-20T07:29:58.153Z,4.63
2018-11-20T07:35:01.514Z,5.00
2018-11-20T07:40:04.825Z,5.17
2018-11-20T07:45:08.472Z,4.85
2018-11-20T07:50:11.823Z,5.02
2018-11-20T07:55:15.169Z,5.04
2018-11-20T08:00:18.516Z,5.07
2018-11-20T08:05:21.853Z,5.13
2018-11-20T08:10:25.957Z,5.18
2018-11-20T08:15:29.427Z,5.02
2018-11-20T08:20:32.639Z,5.17
2018-11-20T08:25:35.981Z,5.10
2018-11-20T08:30:39.330Z,5.31
2018-11-20T08:35:43.434Z,5.45
2018-11-20T08:40:46.759Z,5.57
2018-11-20T08:45:50.111Z,5.61
2018-11-20T08:50:53.450Z,5.70
2018-11-20T08:55:56.771Z,5.92
2018-11-20T09:01:00.122Z,5.95
2018-11-20T09:06:04.518Z,6.15
2018-11-20T09:11:07.879Z,6.02
2018-11-20T09:16:11.966Z,6.11
2018-11-20T09:21:15.320Z,5.62
2018-11-20T09:26:19.422Z,6.13
2018-11-20T09:31:22.781Z,6.00
2018-11-20T09:36:26.114Z,5.98
2018-11-20T09:41:29.447Z,5.83
2018-11-20T09:46:32.824Z,6.33
2018-11-20T09:51:36.154Z,6.31
2018-11-20T09:56:39.495Z,6.16
2018-11-20T10:01:42.850Z,6.30
2018-11-20T10:06:46.997Z,6.29
2018-11-20T10:11:50.302Z,6.52
2018-11-20T10:16:53.625Z,6.29
2018-11-20T10:21:56.978Z,6.70
2018-11-20T10:27:00.325Z,6.77
2018-11-20T10:32:04.426Z,6.69
2018-11-20T10:37:07.779Z,6.76
2018-11-20T10:42:11.121Z,6.79
2018-11-20T10:47:18.643Z,7.04
2018-11-20T10:52:27.670Z,7.07
2018-11-20T10:57:31.004Z,7.12
2018-11-20T11:08:02.475Z,7.23
2018-11-20T11:13:05.631Z,7.52
2018-11-20T11:18:08.996Z,7.62
2018-11-20T11:23:13.100Z,7.72
2018-11-20T11:28:16.462Z,7.74
2018-11-20T11:33:24.220Z,7.97
2018-11-20T11:38:23.149Z,8.08
2018-11-20T11:43:28.208Z,8.13
2018-11-20T11:48:31.538Z,8.60
2018-11-20T11:53:34.877Z,8.79
2018-11-20T11:58:38.351Z,9.29
